Time;durP1;ratioP1;P1;durP2;ratioP2;P2;SDS_P1;SDS_P2;PMS_P1;PMS_P2;Temp;Humidity;BMP_temperature;BMP_pressure;BME280_temperature;BME280_humidity;BME280_pressure;Samples;Min_cycle;Max_cycle;Signal;HPM_P1;HPM_P2
2022/11/20 00:01:37;;;;;;;23.07;12.53;;;11.20;94.20;;;;;;5064759;28;20194;-81
2022/11/20 00:04:06;;;;;;;20.57;11.97;;;11.20;94.30;;;;;;5067245;28;20220;-85
2022/11/20 00:06:35;;;;;;;22.50;13.13;;;11.10;94.30;;;;;;5068876;28;20194;-82
2022/11/20 00:09:05;;;;;;;21.93;12.47;;;11.10;94.40;;;;;;5065199;28;20253;-80
2022/11/20 00:11:33;;;;;;;21.83;12.93;;;11.10;94.40;;;;;;5064707;28;21659;-81
2022/11/20 00:14:03;;;;;;;25.40;13.93;;;11.00;94.40;;;;;;5068649;28;20614;-78
2022/11/20 00:16:33;;;;;;;20.90;13.03;;;11.00;94.50;;;;;;5071209;28;20569;-84
2022/11/20 00:19:02;;;;;;;21.53;13.23;;;10.90;94.50;;;;;;5063614;28;20268;-82
2022/11/20 00:21:31;;;;;;;20.63;12.73;;;10.90;94.50;;;;;;5067763;28;20230;-79
2022/11/20 00:24:00;;;;;;;23.43;13.00;;;10.90;94.50;;;;;;5067922;28;20233;-79
2022/11/20 00:26:29;;;;;;;23.83;12.77;;;10.90;94.50;;;;;;5071917;28;20199;-86
2022/11/20 00:28:59;;;;;;;23.33;13.10;;;10.90;94.40;;;;;;5070690;28;20616;-81
2022/11/20 00:31:29;;;;;;;23.53;13.40;;;10.90;94.60;;;;;;5063818;28;20293;-80
2022/11/20 00:33:57;;;;;;;23.57;13.70;;;10.80;94.60;;;;;;5066517;28;20202;-79
2022/11/20 00:36:27;;;;;;;23.33;13.40;;;10.80;94.60;;;;;;5064739;28;20218;-78
2022/11/20 00:38:57;;;;;;;23.03;14.17;;;10.80;94.60;;;;;;5066975;28;20194;-81
2022/11/20 00:41:28;;;;;;;28.60;14.23;;;10.80;94.70;;;;;;5066144;28;20240;-79
2022/11/20 00:43:57;;;;;;;24.97;14.40;;;10.80;94.70;;;;;;5067701;28;20231;-79
2022/11/20 00:46:27;;;;;;;24.87;13.50;;;10.80;94.70;;;;;;5070609;28;20195;-79
2022/11/20 00:48:56;;;;;;;23.67;13.80;;;10.80;94.70;;;;;;5062253;28;20231;-81
2022/11/20 00:51:26;;;;;;;24.07;14.57;;;10.70;94.80;;;;;;5065376;28;20275;-80
2022/11/20 00:53:56;;;;;;;22.97;13.07;;;10.70;94.80;;;;;;5068305;28;20199;-81
2022/11/20 00:56:26;;;;;;;26.90;14.80;;;10.70;94.80;;;;;;5068788;28;20201;-80
2022/11/20 00:58:55;;;;;;;25.90;14.53;;;10.60;95.30;;;;;;5066754;28;20190;-79
2022/11/20 01:01:26;;;;;;;25.43;15.10;;;10.60;95.10;;;;;;5063831;28;20264;-79
2022/11/20 01:03:56;;;;;;;23.33;13.57;;;10.60;95.00;;;;;;5063128;28;20662;-79
2022/11/20 01:06:26;;;;;;;34.60;15.13;;;10.60;95.20;;;;;;5067495;28;20198;-78
2022/11/20 01:08:57;;;;;;;25.50;14.10;;;10.60;95.20;;;;;;5063360;28;20288;-79
2022/11/20 01:11:30;;;;;;;25.90;15.07;;;10.50;95.20;;;;;;5064426;28;20221;-81
2022/11/20 01:14:00;;;;;;;29.30;14.57;;;10.50;95.30;;;;;;5065038;28;20228;-82
2022/11/20 01:16:30;;;;;;;26.70;16.03;;;10.40;95.40;;;;;;5068533;28;20194;-81
2022/11/20 01:19:00;;;;;;;27.07;14.60;;;10.40;95.50;;;;;;5066814;28;20247;-81
2022/11/20 01:21:32;;;;;;;29.30;15.47;;;10.40;95.50;;;;;;5068973;28;20226;-82
2022/11/20 01:24:00;;;;;;;24.73;13.77;;;10.30;95.70;;;;;;5064115;28;20203;-79
2022/11/20 01:26:32;;;;;;;25.67;15.07;;;10.30;95.70;;;;;;5063924;28;20225;-82
2022/11/20 01:29:02;;;;;;;28.37;14.33;;;10.20;95.80;;;;;;5062973;28;20210;-78
2022/11/20 01:31:32;;;;;;;27.37;14.80;;;10.20;95.80;;;;;;5066951;28;20273;-81
2022/11/20 01:34:02;;;;;;;28.70;15.93;;;10.20;95.90;;;;;;5064318;28;20216;-82
2022/11/20 01:36:31;;;;;;;29.17;16.23;;;10.10;95.90;;;;;;5065313;28;20315;-80
2022/11/20 01:39:04;;;;;;;29.60;15.43;;;10.10;96.00;;;;;;5061146;28;20193;-80
2022/11/20 01:44:23;;;;;;;28.67;14.17;;;10.00;96.40;;;;;;5060771;28;20211;-80
2022/11/20 01:46:58;;;;;;;25.77;14.00;;;10.00;96.40;;;;;;5067594;28;20194;-83
2022/11/20 01:49:35;;;;;;;25.93;14.67;;;10.00;96.50;;;;;;5066612;28;20268;-79
2022/11/20 01:52:08;;;;;;;27.77;14.77;;;10.00;96.70;;;;;;5063368;28;20244;-80
2022/11/20 01:54:40;;;;;;;28.27;14.83;;;10.00;96.80;;;;;;5064744;28;20288;-79
2022/11/20 01:57:36;;;;;;;25.37;14.20;;;9.90;96.90;;;;;;5061937;28;20187;-83
2022/11/20 02:00:14;;;;;;;27.53;15.40;;;10.00;97.00;;;;;;4984252;28;20201;-83
2022/11/20 02:02:48;;;;;;;27.17;14.80;;;9.90;97.10;;;;;;5058201;28;20200;-79
2022/11/20 02:05:23;;;;;;;26.40;14.57;;;10.00;97.10;;;;;;5064458;28;20218;-81
2022/11/20 02:07:53;;;;;;;24.63;13.67;;;10.00;97.20;;;;;;5066059;28;20195;-79
2022/11/20 02:10:23;;;;;;;26.93;13.57;;;10.00;97.10;;;;;;5068967;28;20548;-78
2022/11/20 02:15:40;;;;;;;26.10;13.97;;;10.10;97.50;;;;;;5066150;28;20244;-78
2022/11/20 02:18:10;;;;;;;28.75;15.68;;;10.10;97.10;;;;;;5062665;28;20936;-79
2022/11/20 02:20:39;;;;;;;26.37;13.77;;;10.20;97.20;;;;;;5066003;28;20198;-82
2022/11/20 02:23:19;;;;;;;24.67;13.80;;;10.20;97.00;;;;;;5063610;28;20208;-79
2022/11/20 02:25:50;;;;;;;26.73;13.40;;;10.20;96.90;;;;;;5065740;28;20203;-84
2022/11/20 02:28:19;;;;;;;24.27;11.80;;;10.20;96.90;;;;;;5067621;28;20186;-79
2022/11/20 02:30:47;;;;;;;22.17;12.13;;;10.20;97.00;;;;;;5067083;28;20651;-84
2022/11/20 02:33:16;;;;;;;23.70;12.03;;;10.20;96.90;;;;;;5065222;28;20225;-78
2022/11/20 02:35:46;;;;;;;21.80;12.60;;;10.20;96.90;;;;;;5062097;28;20202;-79
2022/11/20 02:38:15;;;;;;;22.10;12.43;;;10.20;96.90;;;;;;5065417;28;20717;-79
2022/11/20 02:40:43;;;;;;;20.03;11.40;;;10.20;97.00;;;;;;5065141;28;20199;-83
2022/11/20 02:43:13;;;;;;;22.57;12.27;;;10.20;97.00;;;;;;5063963;28;20594;-80
2022/11/20 02:45:41;;;;;;;21.20;11.70;;;10.20;97.00;;;;;;5071878;28;20202;-82
2022/11/20 02:48:10;;;;;;;20.60;10.17;;;10.20;97.00;;;;;;5067282;28;20237;-83
2022/11/20 02:50:40;;;;;;;21.83;11.80;;;10.20;97.00;;;;;;5070830;28;20242;-83
2022/11/20 02:53:08;;;;;;;19.20;11.17;;;10.20;97.00;;;;;;5067123;28;20198;-84
2022/11/20 02:55:49;;;;;;;22.57;11.40;;;10.20;97.10;;;;;;5064396;28;20202;-82
2022/11/20 02:58:49;;;;;;;19.53;10.50;;;10.20;96.90;;;;;;5063622;28;20283;-79
2022/11/20 03:01:17;;;;;;;19.97;11.80;;;10.20;96.80;;;;;;5059167;28;20195;-79
2022/11/20 03:03:48;;;;;;;24.53;11.20;;;10.10;96.80;;;;;;5068732;28;20198;-76
2022/11/20 03:06:16;;;;;;;16.17;9.90;;;10.10;96.80;;;;;;5067904;28;20190;-77
2022/11/20 03:08:45;;;;;;;22.30;10.57;;;10.00;96.90;;;;;;5066363;28;20252;-77
2022/11/20 03:11:13;;;;;;;21.93;10.00;;;10.10;97.00;;;;;;5070314;28;20627;-79
2022/11/20 03:13:42;;;;;;;20.30;10.03;;;10.10;97.00;;;;;;5060754;28;20602;-77
2022/11/20 03:16:13;;;;;;;19.73;9.53;;;10.10;97.00;;;;;;5065407;28;20255;-76
2022/11/20 03:18:42;;;;;;;18.97;10.57;;;10.10;96.90;;;;;;5065436;28;20733;-78
2022/11/20 03:21:11;;;;;;;17.80;9.00;;;10.10;96.90;;;;;;5068964;28;20273;-78
2022/11/20 03:23:40;;;;;;;20.40;10.43;;;10.00;97.00;;;;;;5067307;28;20203;-78
2022/11/20 03:26:11;;;;;;;18.83;9.47;;;10.00;97.00;;;;;;5071200;28;20655;-78
2022/11/20 03:28:39;;;;;;;17.57;8.27;;;10.00;97.10;;;;;;5067844;28;20233;-78
2022/11/20 03:31:11;;;;;;;17.63;9.27;;;10.00;97.00;;;;;;5067101;28;20271;-76
2022/11/20 03:33:41;;;;;;;13.87;8.00;;;10.00;97.10;;;;;;5064444;28;20233;-77
2022/11/20 03:36:11;;;;;;;14.40;7.80;;;10.00;97.10;;;;;;5071427;28;20237;-76
2022/11/20 03:38:40;;;;;;;14.47;7.43;;;9.90;97.10;;;;;;5063858;28;20251;-77
2022/11/20 03:41:10;;;;;;;14.57;7.70;;;9.90;97.20;;;;;;5070767;28;20191;-76
2022/11/20 03:43:38;;;;;;;15.20;7.37;;;10.00;97.30;;;;;;5062620;28;20651;-78
2022/11/20 03:46:07;;;;;;;17.10;7.27;;;10.00;97.40;;;;;;5058585;28;20714;-79
2022/11/20 03:48:37;;;;;;;14.07;7.73;;;10.00;97.40;;;;;;5068712;28;20207;-76
2022/11/20 03:51:10;;;;;;;17.67;7.03;;;10.00;97.50;;;;;;5069854;28;20265;-76
2022/11/20 03:53:39;;;;;;;12.43;6.90;;;10.10;97.40;;;;;;5069726;28;20222;-77
2022/11/20 03:56:15;;;;;;;12.20;5.90;;;10.10;97.40;;;;;;5066601;28;20195;-80
2022/11/20 03:58:58;;;;;;;12.20;6.57;;;10.20;97.40;;;;;;5058560;28;21818;-84
2022/11/20 04:01:28;;;;;;;11.00;6.10;;;10.30;97.30;;;;;;5061734;28;20632;-79
2022/11/20 04:03:58;;;;;;;11.90;6.70;;;10.40;97.20;;;;;;5069938;28;20295;-80
2022/11/20 04:06:29;;;;;;;12.93;5.87;;;10.40;97.10;;;;;;5064979;28;20187;-85
2022/11/20 04:08:58;;;;;;;10.40;5.57;;;10.50;97.00;;;;;;5068435;28;20191;-80
2022/11/20 04:11:30;;;;;;;13.57;6.53;;;10.50;96.80;;;;;;5070004;28;20218;-81
2022/11/20 04:13:59;;;;;;;16.60;6.17;;;10.50;96.70;;;;;;5071167;28;20191;-79
2022/11/20 04:16:31;;;;;;;11.87;6.20;;;10.50;96.70;;;;;;5069861;28;20719;-84
2022/11/20 04:19:02;;;;;;;12.03;6.07;;;10.60;96.70;;;;;;5070532;28;20221;-78
2022/11/20 04:21:31;;;;;;;12.77;5.60;;;10.60;96.60;;;;;;5071810;28;20243;-83
2022/11/20 04:24:00;;;;;;;18.45;7.22;;;10.70;96.50;;;;;;5068403;28;20794;-82
2022/11/20 04:26:29;;;;;;;13.23;6.23;;;10.70;96.50;;;;;;5064209;28;20194;-87
2022/11/20 04:28:58;;;;;;;14.43;6.43;;;10.70;96.50;;;;;;5063041;28;20646;-83
2022/11/20 04:31:28;;;;;;;13.63;6.10;;;10.70;96.50;;;;;;5066758;28;20690;-81
2022/11/20 04:33:59;;;;;;;14.17;5.93;;;10.80;96.50;;;;;;5067484;28;20194;-84
2022/11/20 04:36:31;;;;;;;13.60;6.70;;;10.80;96.40;;;;;;5065131;28;20195;-82
2022/11/20 04:39:01;;;;;;;14.17;6.53;;;10.80;96.40;;;;;;5065866;28;20689;-80
2022/11/20 04:41:31;;;;;;;14.60;6.23;;;10.90;96.50;;;;;;5069389;28;20186;-84
2022/11/20 04:44:02;;;;;;;14.23;6.47;;;10.90;96.30;;;;;;5061863;28;20191;-81
2022/11/20 04:46:32;;;;;;;13.90;6.53;;;10.90;96.30;;;;;;5064735;28;20191;-85
2022/11/20 04:49:00;;;;;;;13.03;6.90;;;10.90;96.20;;;;;;5068357;28;20251;-79
2022/11/20 04:51:30;;;;;;;14.03;6.90;;;10.90;96.20;;;;;;5067159;28;20211;-79
2022/11/20 04:53:58;;;;;;;14.37;6.43;;;10.90;96.30;;;;;;5070509;28;20202;-83
2022/11/20 04:56:27;;;;;;;13.47;6.90;;;11.00;96.30;;;;;;5066583;28;20729;-79
2022/11/20 04:58:55;;;;;;;18.07;7.13;;;11.00;96.20;;;;;;5058863;28;20203;-78
2022/11/20 05:01:25;;;;;;;14.37;5.97;;;11.00;96.10;;;;;;5060447;28;20194;-83
2022/11/20 05:03:53;;;;;;;11.47;6.03;;;11.00;96.00;;;;;;5064375;28;21417;-77
2022/11/20 05:06:22;;;;;;;13.80;6.37;;;11.00;95.90;;;;;;5064356;28;20267;-79
2022/11/20 05:08:52;;;;;;;10.93;5.70;;;10.90;95.70;;;;;;5059431;28;20725;-78
2022/11/20 05:11:21;;;;;;;13.00;5.60;;;10.80;95.70;;;;;;5064963;28;20250;-82
2022/11/20 05:13:51;;;;;;;13.93;6.47;;;10.80;95.80;;;;;;5067713;28;20206;-79
2022/11/20 05:16:21;;;;;;;12.93;6.23;;;10.90;95.90;;;;;;5062939;28;20307;-77
2022/11/20 05:18:54;;;;;;;15.97;6.03;;;10.90;95.80;;;;;;5065286;28;20565;-78
2022/11/20 05:21:22;;;;;;;15.57;6.43;;;11.00;95.90;;;;;;5070555;28;20226;-79
2022/11/20 05:23:52;;;;;;;11.47;5.97;;;11.00;95.80;;;;;;5082042;28;20222;-79
2022/11/20 05:26:22;;;;;;;14.63;6.63;;;11.00;95.70;;;;;;5090532;28;20193;-77
2022/11/20 05:28:51;;;;;;;13.73;5.60;;;11.00;95.70;;;;;;5085162;28;20259;-81
2022/11/20 05:31:21;;;;;;;17.30;6.80;;;11.00;95.60;;;;;;5087325;28;20268;-77
2022/11/20 05:33:56;;;;;;;11.57;6.60;;;11.00;95.80;;;;;;5087330;28;20590;-81
2022/11/20 05:36:25;;;;;;;14.10;6.43;;;11.00;95.80;;;;;;5081046;28;20678;-78
2022/11/20 05:38:54;;;;;;;11.60;5.57;;;11.00;95.80;;;;;;5077885;28;20560;-78
2022/11/20 05:41:29;;;;;;;12.73;6.43;;;11.00;95.80;;;;;;5082627;28;20294;-77
2022/11/20 05:43:58;;;;;;;12.17;6.63;;;11.10;95.80;;;;;;5081672;28;20194;-82
2022/11/20 05:46:27;;;;;;;14.43;6.43;;;11.10;95.80;;;;;;5085580;28;20202;-79
2022/11/20 05:48:57;;;;;;;10.67;5.23;;;11.10;95.80;;;;;;5090938;28;20638;-78
2022/11/20 05:51:28;;;;;;;8.77;5.10;;;11.10;95.80;;;;;;5086840;28;20210;-79
2022/11/20 05:53:59;;;;;;;10.60;5.00;;;11.10;95.80;;;;;;5088811;28;20618;-82
2022/11/20 05:56:30;;;;;;;8.33;4.43;;;11.10;95.80;;;;;;5085388;28;20239;-83
2022/11/20 05:59:03;;;;;;;12.33;5.00;;;11.10;95.80;;;;;;5044431;28;20204;-77
2022/11/20 06:01:31;;;;;;;11.00;4.53;;;11.10;95.80;;;;;;5082126;28;20228;-75
2022/11/20 06:03:59;;;;;;;9.17;4.43;;;11.10;95.80;;;;;;5083631;28;20221;-81
2022/11/20 06:06:28;;;;;;;9.10;4.33;;;11.10;95.70;;;;;;5080140;28;20197;-79
2022/11/20 06:08:58;;;;;;;8.87;4.43;;;11.10;95.80;;;;;;5088809;28;20206;-81
2022/11/20 06:11:27;;;;;;;6.90;3.80;;;11.10;95.80;;;;;;5085895;28;20262;-79
2022/11/20 06:14:01;;;;;;;8.90;4.47;;;11.00;95.80;;;;;;5080896;28;20193;-77
2022/11/20 06:16:29;;;;;;;9.27;4.97;;;11.00;95.90;;;;;;5084867;28;20195;-80
2022/11/20 06:18:57;;;;;;;6.67;3.90;;;11.00;95.90;;;;;;5087368;28;20197;-78
2022/11/20 06:21:26;;;;;;;8.30;4.63;;;11.10;95.90;;;;;;5087038;28;20221;-80
2022/11/20 06:23:54;;;;;;;6.87;4.23;;;11.10;95.90;;;;;;5096344;28;20202;-81
2022/11/20 06:26:28;;;;;;;8.77;4.13;;;11.10;95.80;;;;;;5094493;28;20621;-85
2022/11/20 06:28:56;;;;;;;6.00;4.03;;;11.10;95.80;;;;;;5096341;28;20572;-81
2022/11/20 06:31:26;;;;;;;6.10;3.70;;;11.10;95.90;;;;;;5092115;28;20243;-79
2022/11/20 06:33:56;;;;;;;8.67;3.90;;;11.10;95.90;;;;;;5091913;28;20247;-78
2022/11/20 06:36:24;;;;;;;10.83;4.93;;;11.10;95.90;;;;;;5091884;28;20202;-78
2022/11/20 06:38:53;;;;;;;9.83;4.27;;;11.10;95.90;;;;;;5089887;28;20716;-82
2022/11/20 06:41:23;;;;;;;9.43;4.20;;;11.20;95.80;;;;;;5087588;28;20186;-80
2022/11/20 06:43:52;;;;;;;9.13;4.37;;;11.20;95.80;;;;;;5084469;28;20546;-81
2022/11/20 06:46:21;;;;;;;8.07;4.23;;;11.20;95.70;;;;;;5089467;28;20251;-84
2022/11/20 06:48:50;;;;;;;7.23;4.07;;;11.20;95.80;;;;;;5089237;28;20601;-83
2022/11/20 06:51:18;;;;;;;11.57;4.90;;;11.30;95.80;;;;;;5093966;28;20647;-81
2022/11/20 06:53:47;;;;;;;13.30;4.97;;;11.30;95.80;;;;;;5090576;28;20206;-85
2022/11/20 06:56:15;;;;;;;8.30;3.67;;;11.30;95.80;;;;;;5085820;28;20194;-80
2022/11/20 06:58:46;;;;;;;16.23;5.93;;;11.30;95.90;;;;;;5079658;28;20731;-79
2022/11/20 07:01:17;;;;;;;13.97;5.37;;;11.40;96.00;;;;;;5084588;28;20194;-78
2022/11/20 07:03:46;;;;;;;6.30;3.73;;;11.50;96.10;;;;;;5090570;28;20642;-79
2022/11/20 07:06:21;;;;;;;8.43;3.60;;;11.50;96.10;;;;;;5083055;28;20357;-77
2022/11/20 07:08:52;;;;;;;9.43;3.50;;;11.60;96.10;;;;;;5090883;28;20202;-82
2022/11/20 07:11:20;;;;;;;8.63;3.43;;;11.70;96.20;;;;;;5087932;28;20232;-81
2022/11/20 07:13:50;;;;;;;9.67;4.10;;;11.80;96.10;;;;;;5084813;28;20481;-84
2022/11/20 07:16:18;;;;;;;5.57;3.47;;;11.90;96.30;;;;;;5088844;28;20220;-80
2022/11/20 07:18:47;;;;;;;5.87;3.00;;;12.00;96.30;;;;;;5087767;28;20233;-82
2022/11/20 07:21:18;;;;;;;6.20;2.57;;;12.00;96.10;;;;;;5061281;28;20236;-80
2022/11/20 07:23:48;;;;;;;7.23;3.17;;;12.00;95.90;;;;;;5094045;28;20232;-79
2022/11/20 07:26:17;;;;;;;8.87;2.87;;;12.00;95.70;;;;;;5088235;28;20273;-79
2022/11/20 07:28:46;;;;;;;6.07;2.80;;;12.10;95.80;;;;;;5091475;28;20255;-78
2022/11/20 07:31:16;;;;;;;6.77;3.23;;;12.10;95.80;;;;;;5093323;28;20623;-80
2022/11/20 07:33:47;;;;;;;6.20;2.90;;;12.20;95.80;;;;;;5091275;28;20786;-79
2022/11/20 07:36:15;;;;;;;9.63;4.10;;;12.30;95.90;;;;;;5091352;28;20226;-81
2022/11/20 07:38:43;;;;;;;7.10;3.10;;;12.40;95.80;;;;;;5091053;28;20712;-81
2022/11/20 07:41:11;;;;;;;8.18;3.70;;;12.50;95.90;;;;;;5084467;28;20434;-80
2022/11/20 07:43:40;;;;;;;5.97;2.90;;;12.50;95.90;;;;;;5093225;28;20276;-82
2022/11/20 07:46:09;;;;;;;6.67;3.10;;;12.50;95.80;;;;;;5090078;28;20201;-80
2022/11/20 07:48:38;;;;;;;6.77;3.30;;;12.50;95.70;;;;;;5086369;28;20612;-82
2022/11/20 07:51:07;;;;;;;7.67;3.43;;;12.60;95.40;;;;;;5088158;28;20229;-82
2022/11/20 07:53:35;;;;;;;6.70;3.10;;;12.60;95.30;;;;;;5091059;28;20612;-82
2022/11/20 07:56:04;;;;;;;7.07;3.23;;;12.60;95.30;;;;;;5084706;28;20240;-80
2022/11/20 07:58:34;;;;;;;5.50;3.30;;;12.70;95.20;;;;;;5087609;28;20571;-84
2022/11/20 08:01:06;;;;;;;9.77;3.77;;;12.70;95.60;;;;;;5090712;28;20202;-82
2022/11/20 08:03:37;;;;;;;8.80;3.50;;;12.70;95.30;;;;;;5094625;28;20274;-82
2022/11/20 08:06:08;;;;;;;7.77;3.67;;;12.70;95.20;;;;;;5087290;28;20194;-82
2022/11/20 08:08:38;;;;;;;7.30;3.20;;;12.70;95.20;;;;;;5090397;28;20218;-82
2022/11/20 08:14:14;;;;;;;5.13;2.70;;;12.80;95.10;;;;;;5087492;28;20189;-81
2022/11/20 08:16:44;;;;;;;4.50;2.73;;;12.90;95.10;;;;;;5089542;28;20201;-78
2022/11/20 08:19:13;;;;;;;7.30;3.80;;;12.90;95.00;;;;;;5084940;28;20222;-80
2022/11/20 08:21:43;;;;;;;5.20;2.97;;;13.00;95.10;;;;;;5085140;28;20230;-79
2022/11/20 08:24:12;;;;;;;6.63;2.83;;;13.00;95.10;;;;;;5084957;28;20235;-81
2022/11/20 08:26:41;;;;;;;4.43;2.90;;;13.00;94.90;;;;;;5079516;28;20209;-81
2022/11/20 08:29:09;;;;;;;5.87;3.00;;;13.00;94.90;;;;;;5089464;28;20611;-81
2022/11/20 08:31:37;;;;;;;6.37;3.33;;;13.10;94.70;;;;;;5092505;28;20202;-80
2022/11/20 08:34:06;;;;;;;5.37;2.60;;;13.10;94.60;;;;;;5091357;28;20233;-81
2022/11/20 08:36:40;;;;;;;9.27;3.43;;;13.10;94.60;;;;;;5089459;28;20189;-80
2022/11/20 08:39:13;;;;;;;6.27;3.07;;;13.10;94.60;;;;;;5089435;28;20198;-79
2022/11/20 08:41:41;;;;;;;8.13;3.00;;;13.20;94.70;;;;;;5091393;28;20255;-80
2022/11/20 08:44:09;;;;;;;7.90;3.60;;;13.20;94.70;;;;;;5088331;28;20244;-82
2022/11/20 08:46:40;;;;;;;9.13;3.53;;;13.20;94.60;;;;;;5081359;28;20198;-80
2022/11/20 08:49:11;;;;;;;5.30;3.03;;;13.30;94.60;;;;;;5083501;28;20723;-79
2022/11/20 08:51:40;;;;;;;8.13;3.73;;;13.30;94.50;;;;;;5085286;28;20225;-79
2022/11/20 08:54:10;;;;;;;8.00;3.57;;;13.30;94.40;;;;;;5087126;28;20209;-81
2022/11/20 08:56:40;;;;;;;7.17;3.73;;;13.30;94.40;;;;;;5088678;28;20251;-80
2022/11/20 08:59:08;;;;;;;7.53;3.70;;;13.40;94.40;;;;;;5089513;28;20276;-80
2022/11/20 09:01:58;;;;;;;9.40;4.20;;;13.40;94.40;;;;;;5083731;28;20650;-79
2022/11/20 09:04:26;;;;;;;8.00;4.30;;;13.40;94.40;;;;;;5085803;28;20771;-80
2022/11/20 09:06:55;;;;;;;12.70;4.53;;;13.50;94.30;;;;;;5085698;28;20240;-80
2022/11/20 09:09:24;;;;;;;7.47;4.43;;;13.50;94.30;;;;;;5082112;28;20212;-79
2022/11/20 09:11:53;;;;;;;9.93;4.30;;;13.50;94.10;;;;;;5076720;28;20682;-79
2022/11/20 09:14:24;;;;;;;10.57;4.93;;;13.50;94.20;;;;;;5088295;28;20611;-81
2022/11/20 09:16:52;;;;;;;13.30;5.10;;;13.50;94.10;;;;;;5094675;28;20216;-81
2022/11/20 09:19:21;;;;;;;10.00;4.77;;;13.50;94.00;;;;;;5085634;28;20642;-80
2022/11/20 09:22:04;;;;;;;14.87;4.87;;;13.50;94.00;;;;;;5087704;28;20232;-80
2022/11/20 09:24:34;;;;;;;7.43;4.10;;;13.50;94.00;;;;;;5093877;28;20221;-82
2022/11/20 09:27:04;;;;;;;11.30;5.23;;;13.50;94.00;;;;;;5090795;28;20190;-82
2022/11/20 09:29:33;;;;;;;9.00;5.00;;;13.50;94.00;;;;;;5083758;28;20638;-80
2022/11/20 09:32:01;;;;;;;10.67;5.30;;;13.50;94.00;;;;;;5083243;28;20258;-80
2022/11/20 09:34:31;;;;;;;8.87;4.10;;;13.50;94.00;;;;;;5079470;28;20281;-78
2022/11/20 09:36:59;;;;;;;8.57;4.87;;;13.50;94.00;;;;;;5079734;28;20642;-82
2022/11/20 09:39:38;;;;;;;10.33;4.53;;;13.50;94.00;;;;;;5085177;28;20201;-82
2022/11/20 09:42:31;;;;;;;6.47;4.00;;;13.50;94.00;;;;;;5087969;28;20194;-78
2022/11/20 09:45:16;;;;;;;9.23;3.90;;;13.60;93.90;;;;;;5083736;28;20243;-82
2022/11/20 09:47:59;;;;;;;12.07;5.60;;;13.60;93.90;;;;;;5081782;28;20438;-81
2022/11/20 09:50:33;;;;;;;7.97;4.33;;;13.60;93.90;;;;;;5091496;28;20661;-80
2022/11/20 09:53:13;;;;;;;8.77;4.97;;;13.60;93.90;;;;;;5088719;28;20206;-81
2022/11/20 09:55:46;;;;;;;10.60;4.53;;;13.60;93.80;;;;;;5087880;28;20611;-83
2022/11/20 09:58:24;;;;;;;7.63;4.60;;;13.60;93.80;;;;;;5091264;28;20647;-82
2022/11/20 10:00:56;;;;;;;8.87;5.13;;;13.60;93.60;;;;;;5088224;28;20249;-83
2022/11/20 10:03:37;;;;;;;7.13;4.30;;;13.60;93.60;;;;;;5092666;28;20214;-82
2022/11/20 10:06:09;;;;;;;10.93;4.40;;;13.60;93.60;;;;;;5085967;28;20246;-80
2022/11/20 10:08:42;;;;;;;7.27;4.17;;;13.60;93.70;;;;;;5085710;28;20741;-80
2022/11/20 10:11:19;;;;;;;7.40;4.20;;;13.60;93.70;;;;;;5087157;28;20225;-78
2022/11/20 10:13:58;;;;;;;9.83;4.40;;;13.60;93.60;;;;;;5087178;28;20205;-78
2022/11/20 10:16:37;;;;;;;7.07;4.37;;;13.60;93.60;;;;;;5093945;28;21381;-80
2022/11/20 10:19:25;;;;;;;9.90;4.80;;;13.60;93.50;;;;;;5088202;28;20205;-81
2022/11/20 10:22:01;;;;;;;9.70;4.97;;;13.70;93.50;;;;;;5092914;28;20233;-82
2022/11/20 10:24:56;;;;;;;10.07;5.30;;;13.60;93.50;;;;;;5094938;28;20189;-83
2022/11/20 10:27:43;;;;;;;8.07;4.83;;;13.60;93.50;;;;;;5089881;28;20201;-83
2022/11/20 10:30:14;;;;;;;8.37;4.77;;;13.60;93.50;;;;;;5090337;28;20243;-81
2022/11/20 10:32:44;;;;;;;9.23;5.70;;;13.60;93.50;;;;;;5089989;28;20678;-82
2022/11/20 10:35:22;;;;;;;10.90;5.57;;;13.60;93.50;;;;;;5092994;28;20219;-80
2022/11/20 10:37:56;;;;;;;13.00;6.20;;;13.60;93.50;;;;;;5086473;28;20202;-82
2022/11/20 10:40:32;;;;;;;11.20;5.93;;;13.60;93.50;;;;;;5088443;28;20197;-81
2022/11/20 10:43:09;;;;;;;15.05;7.70;;;13.60;93.60;;;;;;5089664;28;20517;-79
2022/11/20 10:45:54;;;;;;;14.10;5.90;;;13.60;93.70;;;;;;5090621;28;20185;-79
2022/11/20 10:48:24;;;;;;;13.43;6.77;;;13.60;93.70;;;;;;5090886;28;20193;-79
2022/11/20 10:51:04;;;;;;;9.90;5.30;;;13.60;93.70;;;;;;5088530;28;20665;-79
2022/11/20 10:53:48;;;;;;;10.03;5.87;;;13.60;93.70;;;;;;5092928;28;20250;-78
2022/11/20 10:56:21;;;;;;;10.10;5.70;;;13.50;93.70;;;;;;5092955;28;20243;-79
2022/11/20 10:59:03;;;;;;;10.27;5.87;;;13.50;93.70;;;;;;5087385;28;20197;-79
2022/11/20 11:01:31;;;;;;;14.57;7.03;;;13.50;93.70;;;;;;5086143;28;21668;-79
2022/11/20 11:04:00;;;;;;;15.60;6.97;;;13.50;93.80;;;;;;5081810;28;20237;-78
2022/11/20 11:06:35;;;;;;;13.87;6.70;;;13.50;93.80;;;;;;5088942;28;20288;-78
2022/11/20 11:09:10;;;;;;;11.57;6.73;;;13.50;93.90;;;;;;5091585;28;20212;-78
2022/11/20 11:11:39;;;;;;;14.73;6.77;;;13.50;93.90;;;;;;5089959;28;20186;-78
2022/11/20 11:14:11;;;;;;;12.07;6.90;;;13.50;94.00;;;;;;5085036;28;20304;-79
2022/11/20 11:16:51;;;;;;;15.83;7.50;;;13.50;94.00;;;;;;5089611;28;20239;-78
2022/11/20 11:19:19;;;;;;;13.30;7.20;;;13.50;94.00;;;;;;5088187;28;20259;-78
2022/11/20 11:21:50;;;;;;;15.00;7.43;;;13.50;94.00;;;;;;5092069;28;20232;-79
2022/11/20 11:24:24;;;;;;;13.53;7.10;;;13.50;94.00;;;;;;5083388;28;20272;-79
2022/11/20 11:27:16;;;;;;;13.63;6.37;;;13.50;94.20;;;;;;5092415;28;20654;-79
2022/11/20 11:29:47;;;;;;;14.27;6.37;;;13.40;94.20;;;;;;5089399;28;20197;-79
2022/11/20 11:32:20;;;;;;;11.00;6.30;;;13.40;94.20;;;;;;5087697;28;20221;-79
2022/11/20 11:35:00;;;;;;;16.35;7.70;;;13.40;94.30;;;;;;5087399;28;20521;-79
2022/11/20 11:37:35;;;;;;;13.13;7.10;;;13.40;94.40;;;;;;5089669;28;20198;-78
2022/11/20 11:40:04;;;;;;;19.87;7.67;;;13.40;94.50;;;;;;5087486;28;20200;-79
2022/11/20 11:42:57;;;;;;;15.60;6.13;;;13.40;94.60;;;;;;5083354;28;20597;-78
2022/11/20 11:45:26;;;;;;;14.07;7.20;;;13.30;94.60;;;;;;5084516;28;20954;-79
2022/11/20 11:47:58;;;;;;;13.18;6.82;;;13.30;94.70;;;;;;5086596;28;20442;-78
2022/11/20 11:50:30;;;;;;;14.33;6.57;;;13.30;94.80;;;;;;5086310;28;20190;-79
2022/11/20 11:53:08;;;;;;;15.23;6.70;;;13.30;94.80;;;;;;5085456;28;20194;-78
2022/11/20 11:55:41;;;;;;;14.37;7.07;;;13.30;94.80;;;;;;5090025;28;20258;-78
2022/11/20 11:58:27;;;;;;;13.63;6.50;;;13.30;94.90;;;;;;5092329;28;20621;-79
2022/11/20 12:01:01;;;;;;;8.73;5.63;;;13.30;94.90;;;;;;5090354;28;20194;-79
2022/11/20 12:03:35;;;;;;;11.80;6.07;;;13.30;94.90;;;;;;5086793;28;20191;-79
2022/11/20 12:06:10;;;;;;;11.83;6.40;;;13.40;95.00;;;;;;5091723;28;20232;-78
2022/11/20 12:08:45;;;;;;;11.57;6.30;;;13.40;95.00;;;;;;5093660;28;20232;-79
2022/11/20 12:11:17;;;;;;;14.07;7.33;;;13.40;95.10;;;;;;5087067;28;20276;-78
2022/11/20 12:13:54;;;;;;;13.27;7.10;;;13.40;94.90;;;;;;5080818;28;20239;-78
2022/11/20 12:16:25;;;;;;;17.57;8.03;;;13.40;94.90;;;;;;5090420;28;20239;-81
2022/11/20 12:18:54;;;;;;;9.90;6.90;;;13.50;94.90;;;;;;5084416;28;20602;-79
2022/11/20 12:21:32;;;;;;;13.77;7.07;;;13.50;94.90;;;;;;5085824;28;20737;-80
2022/11/20 12:24:19;;;;;;;14.13;6.83;;;13.50;95.00;;;;;;5086750;28;20235;-80
2022/11/20 12:27:03;;;;;;;10.03;6.20;;;13.50;95.00;;;;;;5081326;28;20263;-79
2022/11/20 12:29:44;;;;;;;11.30;6.00;;;13.50;94.90;;;;;;5085618;28;20511;-79
2022/11/20 12:32:35;;;;;;;10.93;7.00;;;13.50;94.90;;;;;;5082226;28;20663;-79
2022/11/20 12:35:11;;;;;;;11.57;6.50;;;13.60;95.00;;;;;;5083456;28;20202;-79
2022/11/20 12:37:49;;;;;;;13.47;7.23;;;13.60;94.90;;;;;;5086091;28;20229;-78
2022/11/20 12:40:28;;;;;;;11.90;6.47;;;13.60;94.90;;;;;;5079355;28;20193;-79
2022/11/20 12:46:18;;;;;;;10.97;6.30;;;13.70;95.00;;;;;;5078508;28;20197;-77
2022/11/20 12:49:09;;;;;;;11.70;5.80;;;13.70;94.80;;;;;;5085814;28;20212;-78
2022/11/20 12:52:00;;;;;;;11.33;6.90;;;13.80;94.80;;;;;;5082955;28;20240;-78
2022/11/20 12:54:58;;;;;;;15.13;7.00;;;13.80;94.80;;;;;;5086168;28;20206;-78
2022/11/20 12:57:35;;;;;;;11.87;6.80;;;13.80;94.70;;;;;;5083087;28;20193;-78
2022/11/20 13:00:13;;;;;;;11.80;6.40;;;13.80;94.50;;;;;;5082817;28;20591;-78
2022/11/20 13:03:19;;;;;;;13.77;7.93;;;13.80;94.50;;;;;;5084084;28;20216;-77
2022/11/20 13:05:58;;;;;;;14.30;7.60;;;13.80;94.50;;;;;;5079948;28;20650;-79
2022/11/20 13:08:30;;;;;;;12.33;8.30;;;13.80;94.50;;;;;;5052286;28;20193;-79
2022/11/20 13:11:05;;;;;;;13.83;8.37;;;13.90;94.60;;;;;;5078470;28;20185;-80
2022/11/20 13:13:43;;;;;;;13.83;8.40;;;13.90;94.50;;;;;;5082701;28;20247;-79
2022/11/20 13:16:18;;;;;;;13.57;7.97;;;13.90;94.70;;;;;;5087548;28;20193;-79